Time;durP1;ratioP1;P1;durP2;ratioP2;P2;SDS_P1;SDS_P2;PMS_P1;PMS_P2;Temp;Humidity;BMP_temperature;BMP_pressure;BME280_temperature;BME280_humidity;BME280_pressure;Samples;Min_cycle;Max_cycle;Signal;HPM_P1;HPM_P2
2023/05/24 00:01:24;;;;;;;6.68;3.25;;;;;;;26.23;55.28;97854.13;5051535;28;20048;-66
2023/05/24 00:04:00;;;;;;;6.47;2.97;;;;;;;26.04;55.72;97859.75;5069513;28;20549;-64
2023/05/24 00:06:33;;;;;;;8.43;3.10;;;;;;;26.05;56.63;97882.28;5054098;28;20367;-64
2023/05/24 00:09:03;;;;;;;9.77;3.22;;;;;;;25.94;57.28;97908.88;5051270;28;20053;-66
2023/05/24 00:11:34;;;;;;;7.95;3.58;;;;;;;25.83;57.65;97919.19;5051625;28;20095;-64
2023/05/24 00:14:03;;;;;;;6.45;3.13;;;;;;;25.81;57.47;97926.03;5078736;28;20117;-65
2023/05/24 00:16:34;;;;;;;5.00;3.20;;;;;;;25.79;57.43;97922.84;5053057;28;20048;-65
2023/05/24 00:19:04;;;;;;;10.13;3.60;;;;;;;25.83;57.44;97897.50;5085022;28;20052;-65
2023/05/24 00:21:35;;;;;;;7.88;4.10;;;;;;;25.80;57.86;97889.97;5071002;28;20437;-67
2023/05/24 00:24:05;;;;;;;7.93;4.07;;;;;;;25.75;58.20;97892.03;5083156;28;20033;-65
2023/05/24 00:26:34;;;;;;;7.40;3.35;;;;;;;25.72;57.85;97909.72;5083887;28;20045;-67
2023/05/24 00:29:04;;;;;;;11.70;3.55;;;;;;;25.76;58.15;97913.41;5088452;28;20051;-66
2023/05/24 00:31:34;;;;;;;10.43;4.13;;;;;;;25.75;57.48;97906.41;5063222;28;20107;-68
2023/05/24 00:34:03;;;;;;;7.63;3.15;;;;;;;25.78;58.20;97894.91;5042712;28;20072;-67
2023/05/24 00:36:33;;;;;;;6.38;3.25;;;;;;;25.85;57.99;97889.03;5050979;28;20058;-67
2023/05/24 00:39:03;;;;;;;15.07;3.95;;;;;;;25.83;57.74;97897.50;5050431;28;20072;-67
2023/05/24 00:41:34;;;;;;;6.85;3.35;;;;;;;25.91;56.44;97902.16;5050678;28;20044;-66
2023/05/24 00:44:03;;;;;;;13.55;4.35;;;;;;;25.95;56.85;97915.91;5055285;28;20049;-64
2023/05/24 00:46:34;;;;;;;11.88;3.90;;;;;;;26.01;56.63;97911.16;5049614;28;20049;-67
2023/05/24 00:49:03;;;;;;;11.45;3.83;;;;;;;26.09;56.27;97907.69;5049767;28;20787;-66
2023/05/24 00:51:33;;;;;;;17.60;3.67;;;;;;;26.20;57.48;97914.44;5050509;28;20135;-68
2023/05/24 00:54:03;;;;;;;9.48;3.90;;;;;;;26.21;56.75;97921.47;5033825;28;20114;-67
2023/05/24 00:56:32;;;;;;;6.07;3.35;;;;;;;26.24;56.30;97920.88;5082741;28;20048;-66
2023/05/24 00:59:02;;;;;;;8.65;3.88;;;;;;;26.34;56.42;97907.00;5051025;28;20041;-68
2023/05/24 01:01:32;;;;;;;16.15;4.28;;;;;;;26.35;56.67;97908.59;5046413;28;20859;-66
2023/05/24 01:04:02;;;;;;;10.48;3.72;;;;;;;26.44;56.87;97911.34;5035028;28;20159;-64
2023/05/24 01:06:43;;;;;;;7.43;3.75;;;;;;;26.47;56.43;97903.38;5050049;28;20179;-65
2023/05/24 01:09:49;;;;;;;16.45;4.63;;;;;;;26.53;56.34;97912.19;5049361;28;20036;-65
2023/05/24 01:12:27;;;;;;;10.35;4.00;;;;;;;26.59;56.37;97938.91;5028057;28;20111;-64
2023/05/24 01:15:14;;;;;;;16.25;3.92;;;;;;;26.59;55.61;97940.81;5066786;28;20487;-64
2023/05/24 01:18:00;;;;;;;7.88;3.88;;;;;;;26.64;55.94;97959.69;5066343;28;20052;-64
2023/05/24 01:20:32;;;;;;;15.30;4.07;;;;;;;26.65;56.06;97980.28;5059077;28;20081;-67
2023/05/24 01:23:52;;;;;;;12.38;4.72;;;;;;;26.59;56.13;97984.28;5049650;28;20044;-64
2023/05/24 01:26:47;;;;;;;12.48;4.15;;;;;;;26.40;56.12;97957.34;5027375;28;20049;-67
2023/05/24 01:29:18;;;;;;;13.25;5.55;;;;;;;26.45;56.42;97953.69;5068461;28;20794;-65
2023/05/24 01:31:47;;;;;;;15.25;5.32;;;;;;;26.47;56.39;97960.41;5055138;28;20131;-66
2023/05/24 01:34:17;;;;;;;14.05;4.22;;;;;;;26.47;56.47;97963.13;5046181;28;20044;-66
2023/05/24 01:36:48;;;;;;;13.73;4.57;;;;;;;26.50;56.42;97943.50;5047405;28;20136;-66
2023/05/24 01:39:18;;;;;;;12.77;5.00;;;;;;;26.52;56.20;97937.72;5047550;28;20140;-66
2023/05/24 01:41:51;;;;;;;13.75;4.60;;;;;;;26.53;56.39;97969.22;5043388;28;20048;-68
2023/05/24 01:44:34;;;;;;;18.83;5.03;;;;;;;26.46;56.06;97958.03;5042913;28;20060;-65
2023/05/24 01:47:34;;;;;;;16.05;4.95;;;;;;;26.54;56.35;97979.78;5060523;28;20128;-65
2023/05/24 01:50:19;;;;;;;10.02;4.72;;;;;;;26.81;57.45;97979.56;5042699;28;20041;-66
2023/05/24 01:52:52;;;;;;;22.77;5.05;;;;;;;26.75;55.91;98005.25;5060961;28;20048;-65
2023/05/24 01:55:27;;;;;;;11.50;4.25;;;;;;;26.72;57.17;97999.66;5041705;28;20124;-66
2023/05/24 01:58:02;;;;;;;17.35;4.85;;;;;;;26.83;56.43;97988.19;5046093;28;20040;-66
2023/05/24 02:00:33;;;;;;;8.70;4.45;;;;;;;26.73;56.43;98014.84;5048304;28;20483;-69
2023/05/24 02:03:05;;;;;;;13.25;4.68;;;;;;;26.76;56.26;98012.31;5048499;28;20371;-67
2023/05/24 02:05:36;;;;;;;22.02;5.55;;;;;;;27.15;58.58;97989.72;5066320;28;20076;-66
2023/05/24 02:08:09;;;;;;;15.70;4.35;;;;;;;26.82;55.99;98000.16;5046931;28;20048;-67
2023/05/24 02:10:40;;;;;;;17.10;4.47;;;;;;;27.01;56.21;98012.72;5040045;28;20058;-66
2023/05/24 02:13:11;;;;;;;12.70;4.93;;;;;;;27.07;56.65;97995.97;5049002;28;20060;-66
2023/05/24 02:15:40;;;;;;;13.48;4.43;;;;;;;27.07;55.75;97998.69;5066031;28;20083;-65
2023/05/24 02:18:13;;;;;;;11.47;4.50;;;;;;;27.07;55.60;97990.53;5055914;28;20047;-66
2023/05/24 02:20:42;;;;;;;9.15;4.20;;;;;;;27.26;55.84;97993.72;5041679;28;20056;-66
2023/05/24 02:23:13;;;;;;;27.35;4.60;;;;;;;27.19;55.74;98017.06;5047169;28;20046;-66
2023/05/24 02:25:42;;;;;;;14.77;4.45;;;;;;;27.17;56.17;98005.72;5044592;28;20044;-66
2023/05/24 02:28:12;;;;;;;12.57;4.53;;;;;;;27.41;55.55;98024.31;5064952;28;20047;-65
2023/05/24 02:30:43;;;;;;;13.73;5.43;;;;;;;27.58;55.22;98029.78;5049722;28;20056;-67
2023/05/24 02:33:13;;;;;;;14.63;5.15;;;;;;;27.63;55.01;98027.72;5078380;28;20052;-67
2023/05/24 02:35:43;;;;;;;15.88;5.65;;;;;;;27.85;54.99;98026.75;5070525;28;20386;-65
2023/05/24 02:38:12;;;;;;;11.75;4.50;;;;;;;28.01;54.29;98036.03;5048260;28;20052;-66
2023/05/24 02:40:41;;;;;;;17.25;5.03;;;;;;;28.21;53.55;98025.63;5061907;28;20738;-66
2023/05/24 02:43:11;;;;;;;16.85;4.78;;;;;;;28.49;51.04;98029.56;5048278;28;20052;-65
2023/05/24 02:45:40;;;;;;;16.80;4.45;;;;;;;28.99;50.32;98035.13;5049052;28;20058;-64
2023/05/24 02:48:10;;;;;;;14.65;4.30;;;;;;;29.66;49.16;98032.31;5047537;28;20051;-65
2023/05/24 02:50:40;;;;;;;22.52;5.10;;;;;;;30.16;49.28;98047.81;5047368;28;20585;-65
2023/05/24 02:53:10;;;;;;;24.83;4.75;;;;;;;30.15;46.97;98032.56;5044763;28;20047;-64
2023/05/24 02:55:42;;;;;;;25.08;5.13;;;;;;;30.01;48.04;98045.72;5065471;28;20472;-65
2023/05/24 02:58:12;;;;;;;16.70;4.78;;;;;;;30.37;47.52;98042.31;5046792;28;20052;-65
2023/05/24 03:00:44;;;;;;;27.70;5.40;;;;;;;30.51;46.60;98045.56;5031092;28;20045;-65
2023/05/24 03:03:14;;;;;;;14.85;4.63;;;;;;;31.20;46.59;98035.38;5047813;28;20423;-65
2023/05/24 03:05:45;;;;;;;20.60;6.30;;;;;;;30.96;45.80;98051.78;5047626;28;20057;-65
2023/05/24 03:08:14;;;;;;;19.23;4.82;;;;;;;31.10;45.55;98065.16;5048040;28;20131;-64
2023/05/24 03:10:43;;;;;;;18.45;4.93;;;;;;;31.67;45.08;98069.66;5029199;28;20052;-64
2023/05/24 03:13:14;;;;;;;25.20;5.07;;;;;;;31.52;45.89;98066.47;5047005;28;20472;-64
2023/05/24 03:15:43;;;;;;;21.55;4.60;;;;;;;31.50;45.20;98062.50;5049957;28;20488;-64
2023/05/24 03:18:12;;;;;;;25.90;4.40;;;;;;;31.84;45.50;98070.19;5045366;28;20140;-66
2023/05/24 03:20:44;;;;;;;28.45;5.72;;;;;;;31.90;44.51;98077.03;5027226;28;20056;-64
2023/05/24 03:23:14;;;;;;;22.88;5.20;;;;;;;30.93;46.00;98079.00;5042052;28;20052;-64
2023/05/24 03:25:43;;;;;;;24.70;5.03;;;;;;;31.13;46.28;98073.47;5047570;28;20059;-64
2023/05/24 03:28:13;;;;;;;16.27;4.35;;;;;;;30.79;46.06;98060.19;5047410;28;20045;-64
2023/05/24 03:30:43;;;;;;;36.28;6.10;;;;;;;30.83;47.96;98061.09;5047685;28;20063;-64
2023/05/24 03:33:14;;;;;;;34.85;5.20;;;;;;;30.50;46.41;98068.56;5047160;28;20080;-64
2023/05/24 03:35:44;;;;;;;23.63;5.35;;;;;;;30.24;48.07;98066.88;5047771;28;20049;-64
2023/05/24 03:38:14;;;;;;;33.97;5.95;;;;;;;30.57;46.10;98069.63;5046053;28;20056;-65
2023/05/24 03:40:46;;;;;;;31.42;5.30;;;;;;;30.83;45.82;98077.53;5037329;28;20053;-64
2023/05/24 03:43:20;;;;;;;22.20;5.47;;;;;;;30.86;45.92;98074.09;5042790;28;20049;-65
2023/05/24 03:45:56;;;;;;;30.88;4.95;;;;;;;31.04;45.53;98067.31;5046076;28;20063;-65
2023/05/24 03:48:25;;;;;;;23.38;5.20;;;;;;;30.49;46.04;98077.91;5082255;28;20697;-64
2023/05/24 03:50:55;;;;;;;20.60;4.72;;;;;;;30.60;46.55;98079.06;5067897;28;20440;-65
2023/05/24 03:53:25;;;;;;;27.02;5.18;;;;;;;30.55;46.10;98077.34;5051308;28;20044;-65
2023/05/24 03:55:55;;;;;;;24.48;4.50;;;;;;;30.49;48.35;98077.91;5047315;28;20049;-64
2023/05/24 03:58:25;;;;;;;31.48;5.53;;;;;;;30.15;46.79;98077.06;5047179;28;20430;-64
2023/05/24 04:00:54;;;;;;;24.35;6.20;;;;;;;30.41;48.54;98076.81;5047670;28;20063;-64
2023/05/24 04:03:24;;;;;;;19.50;4.57;;;;;;;30.54;48.94;98086.69;5046396;28;20079;-64
2023/05/24 04:05:55;;;;;;;29.85;5.13;;;;;;;30.37;47.29;98089.56;5047523;28;20041;-64
2023/05/24 04:08:24;;;;;;;23.90;5.72;;;;;;;30.53;48.75;98095.22;5046736;28;20139;-63
2023/05/24 04:10:53;;;;;;;22.75;5.88;;;;;;;30.44;47.05;98092.56;5047045;28;20128;-64
2023/05/24 04:13:23;;;;;;;22.58;4.70;;;;;;;30.38;47.04;98098.56;5046841;28;20044;-66
2023/05/24 04:15:53;;;;;;;26.92;4.95;;;;;;;30.55;48.48;98106.63;5046802;28;20139;-64
2023/05/24 04:18:23;;;;;;;15.90;4.15;;;;;;;30.37;47.35;98102.41;5045422;28;20053;-64
2023/05/24 04:20:54;;;;;;;24.25;5.00;;;;;;;30.05;47.55;98112.22;5046929;28;20155;-64
2023/05/24 04:23:24;;;;;;;27.65;5.70;;;;;;;30.23;47.99;98110.91;5046685;28;20056;-63
2023/05/24 04:25:53;;;;;;;20.73;4.20;;;;;;;30.29;49.69;98113.09;5015122;28;20044;-65
2023/05/24 04:28:25;;;;;;;25.08;4.88;;;;;;;30.54;50.09;98124.16;5046563;28;20052;-64
2023/05/24 04:30:56;;;;;;;32.10;4.70;;;;;;;30.64;47.30;98126.47;5016310;28;20055;-64
2023/05/24 04:33:26;;;;;;;19.35;4.22;;;;;;;30.58;46.69;98117.66;5040749;28;20045;-64
2023/05/24 04:35:56;;;;;;;16.45;4.53;;;;;;;30.30;46.67;98114.72;5047193;28;20056;-64
2023/05/24 04:38:28;;;;;;;28.30;5.75;;;;;;;30.50;46.97;98112.28;5048062;28;20672;-64
2023/05/24 04:40:58;;;;;;;18.27;4.07;;;;;;;30.44;47.73;98110.88;5067006;28;20059;-64
2023/05/24 04:43:28;;;;;;;20.95;4.22;;;;;;;30.51;47.07;98103.75;5066705;28;20048;-64
2023/05/24 04:45:57;;;;;;;18.55;4.05;;;;;;;30.26;47.02;98113.78;5067293;28;20106;-63
2023/05/24 04:48:26;;;;;;;17.83;4.00;;;;;;;30.39;48.05;98111.09;5082862;28;20125;-64
2023/05/24 04:50:57;;;;;;;25.38;5.30;;;;;;;30.33;47.85;98114.03;5080994;28;20052;-64
2023/05/24 04:53:27;;;;;;;73.88;9.07;;;;;;;30.74;48.85;98124.09;5053656;28;20048;-64
2023/05/24 04:55:56;;;;;;;23.05;4.55;;;;;;;30.89;45.83;98130.84;5056942;28;20088;-63
2023/05/24 04:58:26;;;;;;;19.63;4.05;;;;;;;31.09;45.84;98124.53;5066557;28;20044;-62
2023/05/24 05:01:06;;;;;;;22.20;4.47;;;;;;;30.62;47.74;98132.28;5069025;28;20153;-70
2023/05/24 05:03:52;;;;;;;26.40;5.32;;;;;;;30.78;46.67;98135.16;5039907;28;20032;-63
2023/05/24 05:06:22;;;;;;;17.27;4.93;;;;;;;31.01;49.66;98136.38;5050327;28;20156;-62
2023/05/24 05:08:51;;;;;;;12.90;5.05;;;;;;;31.03;45.96;98139.56;5067918;28;20506;-61
2023/05/24 05:11:21;;;;;;;19.45;3.60;;;;;;;30.73;46.59;98132.63;5065779;28;20490;-62
2023/05/24 05:13:50;;;;;;;18.92;4.32;;;;;;;30.87;46.99;98130.41;5065609;28;20052;-62
2023/05/24 05:16:19;;;;;;;22.98;5.43;;;;;;;31.56;46.13;98130.38;5055510;28;20048;-61
2023/05/24 05:18:50;;;;;;;16.08;3.80;;;;;;;32.11;43.87;98136.34;5035549;28;20784;-61
2023/05/24 05:21:20;;;;;;;18.02;3.78;;;;;;;32.20;42.41;98142.50;5044731;28;20048;-60
2023/05/24 05:23:49;;;;;;;16.75;3.70;;;;;;;32.50;42.63;98146.47;5066477;28;20134;-62
2023/05/24 05:26:18;;;;;;;12.60;3.10;;;;;;;32.75;42.17;98152.69;5067132;28;20483;-61
2023/05/24 05:28:47;;;;;;;13.57;3.42;;;;;;;32.83;40.69;98146.25;5067177;28;20059;-62
2023/05/24 05:31:17;;;;;;;17.25;3.63;;;;;;;33.28;41.03;98151.34;5066826;28;20135;-62
2023/05/24 05:33:46;;;;;;;16.80;3.67;;;;;;;33.46;40.93;98147.06;5065881;28;20797;-60
2023/05/24 05:36:16;;;;;;;20.55;3.97;;;;;;;33.42;39.79;98151.66;5066153;28;20467;-60
2023/05/24 05:38:45;;;;;;;13.80;3.22;;;;;;;33.80;38.74;98151.81;5066654;28;20052;-60
2023/05/24 05:41:15;;;;;;;18.92;3.72;;;;;;;33.36;38.58;98144.88;5066438;28;20099;-61
2023/05/24 05:43:44;;;;;;;10.88;3.95;;;;;;;33.79;38.01;98139.25;5065267;28;20052;-59
2023/05/24 05:46:14;;;;;;;9.18;2.58;;;;;;;33.94;37.41;98129.38;5066338;28;20048;-60
2023/05/24 05:48:44;;;;;;;8.02;2.55;;;;;;;33.74;37.46;98123.03;5067792;28;20048;-60
2023/05/24 05:51:13;;;;;;;10.23;2.90;;;;;;;33.93;37.29;98115.97;5067145;28;20056;-60
2023/05/24 05:53:43;;;;;;;12.00;3.00;;;;;;;33.99;37.91;98120.03;5066480;28;20110;-60
2023/05/24 05:56:12;;;;;;;13.48;3.47;;;;;;;33.40;38.62;98115.53;5064727;28;20049;-60
2023/05/24 05:58:42;;;;;;;16.13;3.22;;;;;;;34.03;39.49;98116.22;5047936;28;20045;-61
2023/05/24 06:01:11;;;;;;;8.40;2.67;;;;;;;33.76;39.49;98123.47;5046410;28;20049;-60
2023/05/24 06:03:40;;;;;;;7.63;2.65;;;;;;;34.07;38.21;98105.28;5060590;28;20431;-60
2023/05/24 06:06:10;;;;;;;11.95;3.25;;;;;;;34.12;36.99;98105.00;5063947;28;20048;-60
2023/05/24 06:08:39;;;;;;;12.10;3.17;;;;;;;33.61;38.80;98104.25;5063976;28;20060;-60
2023/05/24 06:11:09;;;;;;;12.70;3.10;;;;;;;34.16;38.67;98098.44;5045606;28;20504;-61
2023/05/24 06:13:38;;;;;;;15.68;3.75;;;;;;;34.48;38.46;98101.78;5065186;28;20045;-60
2023/05/24 06:16:08;;;;;;;14.52;3.28;;;;;;;34.72;38.52;98104.25;5047402;28;20456;-60
2023/05/24 06:18:39;;;;;;;13.88;3.72;;;;;;;34.27;36.81;98106.88;5033073;28;20056;-60
2023/05/24 06:21:20;;;;;;;15.73;4.13;;;;;;;34.73;38.94;98113.31;5066386;28;20141;-60
2023/05/24 06:23:50;;;;;;;11.70;3.45;;;;;;;34.54;39.59;98107.81;5065997;28;20048;-59
2023/05/24 06:26:21;;;;;;;10.77;3.40;;;;;;;34.27;37.19;98110.44;5065830;28;20052;-60
2023/05/24 06:28:50;;;;;;;13.43;3.50;;;;;;;34.41;37.09;98104.44;5049038;28;20045;-60
2023/05/24 06:31:20;;;;;;;10.52;3.08;;;;;;;34.46;38.18;98115.13;5029912;28;20044;-60
2023/05/24 06:33:49;;;;;;;8.27;2.80;;;;;;;34.46;37.39;98095.88;5066591;28;20152;-60
2023/05/24 06:36:41;;;;;;;11.98;3.13;;;;;;;34.76;38.95;98098.00;5066288;28;20048;-61
2023/05/24 06:39:12;;;;;;;13.13;3.25;;;;;;;34.83;38.45;98109.94;5065460;28;20044;-61
2023/05/24 06:41:45;;;;;;;7.80;2.70;;;;;;;34.71;37.30;98099.91;5060381;28;20063;-61
2023/05/24 06:44:15;;;;;;;7.68;3.05;;;;;;;34.81;38.77;98105.97;5028440;28;20126;-61
2023/05/24 06:46:45;;;;;;;9.48;2.88;;;;;;;34.60;37.28;98100.84;5036546;28;20468;-60
2023/05/24 06:49:15;;;;;;;16.00;3.92;;;;;;;34.62;35.58;98095.78;5065791;28;20424;-60
2023/05/24 06:51:44;;;;;;;11.77;3.60;;;;;;;34.22;38.28;98096.19;5066070;28;20056;-60
2023/05/24 06:54:17;;;;;;;;;;;;;;;34.81;37.77;98093.00;5046700;28;20102;-60
2023/05/24 06:56:46;;;;;;;11.93;3.65;;;;;;;34.86;37.01;98086.41;5047720;28;19931;-60
2023/05/24 06:59:15;;;;;;;13.80;3.53;;;;;;;34.91;37.24;98094.34;5048090;28;20055;-61
2023/05/24 07:01:45;;;;;;;13.43;3.63;;;;;;;34.57;38.66;98088.59;5048773;28;20143;-59
2023/05/24 07:04:14;;;;;;;13.93;4.05;;;;;;;34.44;37.15;98081.69;5065511;28;20078;-60
2023/05/24 07:06:44;;;;;;;11.88;3.85;;;;;;;34.45;36.48;98072.28;5031752;28;20137;-60
2023/05/24 07:09:14;;;;;;;14.05;3.58;;;;;;;34.76;37.96;98079.56;5065719;28;20048;-59
2023/05/24 07:11:44;;;;;;;21.65;4.00;;;;;;;34.99;39.39;98063.03;5040916;28;20045;-59
2023/05/24 07:14:13;;;;;;;12.43;3.70;;;;;;;34.41;37.96;98063.16;5046549;28;20049;-59
2023/05/24 07:16:42;;;;;;;17.83;4.10;;;;;;;34.56;39.68;98062.28;5065937;28;20144;-60
2023/05/24 07:19:12;;;;;;;9.55;3.70;;;;;;;34.68;41.31;98056.63;5061363;28;20048;-59
2023/05/24 07:21:41;;;;;;;12.38;4.68;;;;;;;34.37;37.62;98043.06;5045985;28;20060;-60
2023/05/24 07:24:11;;;;;;;18.15;4.10;;;;;;;34.28;38.13;98045.25;5046326;28;20412;-60
2023/05/24 07:26:43;;;;;;;12.20;4.18;;;;;;;34.78;37.58;98032.41;5066040;28;20703;-61
2023/05/24 07:29:12;;;;;;;20.10;4.43;;;;;;;34.30;38.44;98039.41;5065329;28;20459;-61
2023/05/24 07:31:42;;;;;;;15.38;3.63;;;;;;;33.98;38.40;98030.50;5064465;28;20056;-61
2023/05/24 07:34:11;;;;;;;12.70;3.45;;;;;;;34.12;40.63;98031.53;5047513;28;20055;-60
2023/05/24 07:36:41;;;;;;;11.95;4.40;;;;;;;34.16;40.94;98023.38;5065639;28;20053;-61
2023/05/24 07:39:11;;;;;;;12.57;3.63;;;;;;;33.81;40.47;98021.50;5065174;28;20062;-60
2023/05/24 07:41:41;;;;;;;11.18;3.38;;;;;;;34.16;40.27;98004.16;5045712;28;20140;-61
2023/05/24 07:44:12;;;;;;;12.57;4.78;;;;;;;34.56;39.04;97992.72;5044895;28;20114;-62
2023/05/24 07:46:41;;;;;;;12.00;3.95;;;;;;;34.20;39.02;98000.34;5050085;28;20484;-61
2023/05/24 07:49:11;;;;;;;14.18;4.72;;;;;;;33.95;41.96;97988.03;5047316;28;20056;-61
2023/05/24 07:51:40;;;;;;;19.10;4.95;;;;;;;33.89;40.40;97985.94;5047955;28;20088;-63
2023/05/24 07:54:10;;;;;;;15.02;4.13;;;;;;;33.68;41.20;97981.59;5046473;28;20037;-61
2023/05/24 07:56:41;;;;;;;12.43;3.75;;;;;;;33.80;40.14;97986.19;5047513;28;20040;-60
2023/05/24 07:59:11;;;;;;;12.25;4.00;;;;;;;33.87;40.21;97989.06;5064835;28;20102;-60
2023/05/24 08:01:41;;;;;;;14.18;4.70;;;;;;;33.89;40.75;97989.50;5063148;28;20063;-61
2023/05/24 08:04:10;;;;;;;15.68;4.40;;;;;;;33.79;40.54;97981.81;5046915;28;20421;-62
2023/05/24 08:06:40;;;;;;;16.13;4.43;;;;;;;33.83;40.12;97979.94;5065363;28;20063;-61
2023/05/24 08:09:10;;;;;;;16.52;5.05;;;;;;;34.00;41.32;97976.75;5050906;28;20058;-61
2023/05/24 08:11:40;;;;;;;14.98;4.07;;;;;;;34.04;40.83;97974.06;5066246;28;20044;-60
2023/05/24 08:14:10;;;;;;;15.45;4.13;;;;;;;34.03;40.07;97967.00;5050660;28;20044;-61
2023/05/24 08:16:39;;;;;;;17.10;4.50;;;;;;;34.05;41.50;97965.44;5049429;28;20119;-61
2023/05/24 08:19:09;;;;;;;14.52;4.70;;;;;;;34.24;40.53;97970.16;5068068;28;20524;-60
2023/05/24 08:21:40;;;;;;;14.73;3.88;;;;;;;34.15;39.60;97964.88;5050800;28;20145;-62
2023/05/24 08:24:10;;;;;;;17.83;4.28;;;;;;;34.02;40.59;97968.13;5050276;28;20114;-61
2023/05/24 08:26:40;;;;;;;18.25;4.78;;;;;;;34.16;40.26;97957.41;5051245;28;20487;-61
2023/05/24 08:29:09;;;;;;;17.25;4.30;;;;;;;34.24;41.38;97954.44;5050871;28;20040;-61
2023/05/24 08:31:39;;;;;;;17.55;4.18;;;;;;;34.00;40.95;97952.00;5068780;28;20372;-60
2023/05/24 08:34:09;;;;;;;17.55;5.30;;;;;;;33.89;39.97;97939.22;5050378;28;20047;-61
2023/05/24 08:36:41;;;;;;;22.48;4.63;;;;;;;34.05;41.62;97940.72;5068318;28;20084;-61
2023/05/24 08:39:10;;;;;;;13.82;5.13;;;;;;;34.36;40.88;97931.47;5049916;28;20110;-60
2023/05/24 08:41:40;;;;;;;18.92;4.30;;;;;;;34.44;41.33;97935.91;5054347;28;20135;-64
2023/05/24 08:44:12;;;;;;;12.63;4.85;;;;;;;34.55;41.06;97933.34;5066232;28;20050;-62
2023/05/24 08:46:42;;;;;;;16.20;4.68;;;;;;;34.46;40.30;97924.56;5065211;28;20555;-63
2023/05/24 08:49:13;;;;;;;12.80;4.30;;;;;;;34.10;40.76;97926.69;5059963;28;20064;-62
2023/05/24 08:51:44;;;;;;;11.85;4.90;;;;;;;34.32;42.02;97916.88;5060711;28;20059;-61
2023/05/24 08:54:15;;;;;;;11.73;5.05;;;;;;;34.34;41.00;97917.31;5067172;28;20059;-61
2023/05/24 08:56:44;;;;;;;21.33;5.70;;;;;;;34.21;41.59;97908.44;5049968;28;20391;-61
2023/05/24 08:59:16;;;;;;;20.30;5.15;;;;;;;34.10;41.49;97910.19;5047680;28;20128;-61
2023/05/24 09:01:52;;;;;;;17.52;5.13;;;;;;;34.34;41.51;97900.00;5067947;28;20497;-61
2023/05/24 09:04:23;;;;;;;59.45;6.43;;;;;;;33.79;41.55;97891.16;5049379;28;20551;-60
2023/05/24 09:06:55;;;;;;;17.25;4.90;;;;;;;33.78;42.55;97901.34;5067625;28;20060;-61
2023/05/24 09:09:28;;;;;;;19.27;4.40;;;;;;;33.71;41.71;97894.94;5066311;28;20044;-61
2023/05/24 09:12:01;;;;;;;13.55;4.35;;;;;;;33.96;43.16;97889.88;5067608;28;20045;-60
2023/05/24 09:14:30;;;;;;;;;;;;;;;34.07;42.56;97885.38;5047726;28;20062;-61
2023/05/24 09:17:00;;;;;;;15.57;4.78;;;;;;;34.07;42.56;97877.16;5037981;28;20019;-61
2023/05/24 09:19:29;;;;;;;22.02;5.28;;;;;;;33.70;41.87;97872.16;5067377;28;20067;-61
2023/05/24 09:21:59;;;;;;;12.93;4.30;;;;;;;33.93;41.41;97872.19;5067151;28;20058;-64
2023/05/24 09:24:29;;;;;;;23.55;4.70;;;;;;;34.00;41.35;97868.75;5046783;28;20072;-68
2023/05/24 09:27:05;;;;;;;19.25;4.13;;;;;;;34.09;42.03;97856.34;5065061;28;20826;-60
2023/05/24 09:29:40;;;;;;;10.35;3.97;;;;;;;34.19;42.29;97852.22;5056835;28;20595;-60
2023/05/24 09:32:09;;;;;;;14.02;4.70;;;;;;;33.94;41.73;97853.75;5047690;28;20472;-58
2023/05/24 09:34:40;;;;;;;13.00;5.15;;;;;;;34.14;40.37;97847.81;5068074;28;20632;-60
2023/05/24 09:37:17;;;;;;;13.32;4.63;;;;;;;34.18;40.78;97840.44;5047510;28;20536;-60
2023/05/24 09:39:51;;;;;;;18.90;5.63;;;;;;;34.00;40.08;97831.06;5068738;28;20557;-63
2023/05/24 09:42:27;;;;;;;15.43;5.38;;;;;;;34.12;41.48;97828.13;5079120;28;20044;-61
2023/05/24 09:45:09;;;;;;;20.13;5.07;;;;;;;34.22;41.12;97830.28;5019542;28;20135;-61
2023/05/24 09:47:41;;;;;;;12.88;4.75;;;;;;;34.20;41.79;97821.63;5067161;28;20121;-60
2023/05/24 09:50:16;;;;;;;21.47;5.27;;;;;;;34.29;41.63;97810.38;5067296;28;20044;-61
2023/05/24 09:52:45;;;;;;;13.60;4.40;;;;;;;34.24;41.83;97811.50;5067338;28;20774;-62
2023/05/24 09:55:17;;;;;;;9.52;4.55;;;;;;;34.14;43.15;97808.53;5046948;28;20052;-63
2023/05/24 09:58:12;;;;;;;13.80;4.80;;;;;;;33.97;42.36;97803.53;5067087;28;20052;-58
2023/05/24 10:00:42;;;;;;;16.77;4.97;;;;;;;34.15;41.26;97804.63;5064701;28;20048;-59
2023/05/24 10:03:13;;;;;;;12.18;4.47;;;;;;;34.16;42.36;97796.06;5074931;28;20424;-59
2023/05/24 10:05:47;;;;;;;23.05;5.30;;;;;;;34.06;43.04;97796.63;5047448;28;20056;-58
2023/05/24 10:08:17;;;;;;;;;;;;;;;33.90;41.16;97795.19;5048181;28;20048;-57
2023/05/24 10:10:46;;;;;;;14.85;5.03;;;;;;;34.01;40.81;97785.16;5049328;28;20015;-61
2023/05/24 10:13:17;;;;;;;14.18;4.70;;;;;;;34.08;42.55;97783.31;5048305;28;20147;-62
2023/05/24 10:15:49;;;;;;;16.75;4.60;;;;;;;33.96;42.76;97780.75;5048141;28;20563;-60
2023/05/24 10:18:23;;;;;;;12.00;4.28;;;;;;;34.01;42.06;97780.44;5065039;28;20811;-59
2023/05/24 10:20:59;;;;;;;14.10;4.97;;;;;;;34.01;42.71;97776.91;5048304;28;20052;-59
2023/05/24 10:23:31;;;;;;;21.35;5.10;;;;;;;34.18;41.86;97771.72;5045029;28;20801;-58
2023/05/24 10:26:07;;;;;;;14.60;4.25;;;;;;;34.16;42.16;97778.72;5031965;28;20052;-61
2023/05/24 10:28:52;;;;;;;21.40;4.88;;;;;;;33.83;40.99;97776.63;5030962;28;20045;-61
2023/05/24 10:31:27;;;;;;;16.92;4.78;;;;;;;33.78;41.62;97768.69;5047822;28;20184;-61
2023/05/24 10:33:59;;;;;;;18.63;5.75;;;;;;;33.83;42.41;97763.69;5065753;28;20056;-59
2023/05/24 10:36:42;;;;;;;15.77;4.78;;;;;;;33.88;43.66;97762.59;5048857;28;20163;-61
2023/05/24 10:39:12;;;;;;;16.95;5.00;;;;;;;33.70;41.82;97767.78;5065792;28;20151;-61
2023/05/24 10:41:42;;;;;;;16.27;4.80;;;;;;;33.80;41.12;97752.63;5038581;28;20532;-60
2023/05/24 10:44:18;;;;;;;13.38;4.43;;;;;;;33.90;42.05;97754.78;5063085;28;20098;-58
2023/05/24 10:47:16;;;;;;;17.15;5.10;;;;;;;33.71;42.70;97746.59;5064604;28;20117;-61
2023/05/24 10:49:51;;;;;;;19.80;5.13;;;;;;;33.76;42.44;97744.34;5064355;28;20052;-60
2023/05/24 10:52:21;;;;;;;15.35;4.70;;;;;;;33.90;42.19;97743.00;5067304;28;20429;-60
2023/05/24 10:55:08;;;;;;;16.73;5.00;;;;;;;33.77;41.89;97739.63;5055760;28;20487;-61
2023/05/24 10:57:39;;;;;;;19.60;5.20;;;;;;;33.89;42.20;97747.69;5075888;28;20044;-62
2023/05/24 11:00:24;;;;;;;16.55;4.50;;;;;;;33.94;42.84;97744.63;5056416;28;20039;-63
2023/05/24 11:03:22;;;;;;;12.50;4.57;;;;;;;33.72;42.22;97729.75;5066585;28;20051;-64
2023/05/24 11:05:53;;;;;;;15.48;4.70;;;;;;;33.89;41.69;97728.44;5047363;28;20075;-63
2023/05/24 11:08:32;;;;;;;12.73;5.28;;;;;;;33.76;41.72;97732.56;5047019;28;20056;-63
2023/05/24 11:11:10;;;;;;;15.80;5.13;;;;;;;33.78;41.52;97733.75;5046966;28;20048;-59
2023/05/24 11:13:56;;;;;;;19.13;6.72;;;;;;;33.87;43.58;97729.97;5046526;28;20036;-60
2023/05/24 11:16:52;;;;;;;11.70;5.18;;;;;;;33.89;42.45;97730.41;5069845;28;20518;-61
2023/05/24 11:19:34;;;;;;;14.63;5.63;;;;;;;33.86;42.37;97720.94;5056064;28;20049;-63
2023/05/24 11:22:07;;;;;;;14.55;4.68;;;;;;;33.79;42.00;97720.81;5045329;28;20749;-59
2023/05/24 11:24:37;;;;;;;15.25;5.22;;;;;;;33.70;41.58;97712.03;5045750;28;20162;-61
2023/05/24 11:27:07;;;;;;;15.85;5.22;;;;;;;33.63;43.46;97717.41;5063676;28;20052;-61
2023/05/24 11:29:43;;;;;;;17.90;5.05;;;;;;;33.59;42.17;97711.06;5045163;28;20696;-63
2023/05/24 11:32:17;;;;;;;22.77;5.03;;;;;;;33.53;43.29;97710.56;5044654;28;20496;-60
2023/05/24 11:34:48;;;;;;;16.67;4.90;;;;;;;33.50;43.75;97708.56;5046385;28;20059;-61
2023/05/24 11:37:18;;;;;;;20.10;5.82;;;;;;;33.50;42.81;97700.34;5063699;28;20532;-62
2023/05/24 11:40:03;;;;;;;14.25;5.57;;;;;;;33.53;43.48;97691.34;5045281;28;20059;-62
2023/05/24 11:42:36;;;;;;;14.32;4.75;;;;;;;33.57;42.35;97688.66;5037392;28;20193;-62
2023/05/24 11:45:09;;;;;;;14.87;5.47;;;;;;;33.56;43.09;97687.84;5029879;28;20049;-62
2023/05/24 11:47:39;;;;;;;13.40;4.80;;;;;;;33.60;43.54;97690.66;5064974;28;20311;-61
2023/05/24 11:50:09;;;;;;;14.77;4.63;;;;;;;33.57;43.56;97688.66;5046033;28;20055;-61